Time;durP1;ratioP1;P1;durP2;ratioP2;P2;SDS_P1;SDS_P2;PMS_P1;PMS_P2;Temp;Humidity;BMP_temperature;BMP_pressure;BME280_temperature;BME280_humidity;BME280_pressure;Samples;Min_cycle;Max_cycle;Signal;HPM_P1;HPM_P2
2021/06/09 00:00:08;;;;;;;18.48;14.90;;;;;;;18.06;71.92;99341.50;5100487;28;20127;-60
2021/06/09 00:02:35;;;;;;;15.18;13.57;;;;;;;17.97;71.70;99344.44;5089156;28;20028;-58
2021/06/09 00:05:00;;;;;;;14.82;12.55;;;;;;;17.52;72.09;99290.19;5090332;28;20380;-59
2021/06/09 00:07:26;;;;;;;14.60;11.60;;;;;;;17.88;72.43;99357.19;5108627;28;20078;-58
2021/06/09 00:09:52;;;;;;;14.88;13.35;;;;;;;17.88;72.06;99344.53;5106383;28;20055;-58
2021/06/09 00:12:17;;;;;;;14.43;12.18;;;;;;;17.86;72.17;99357.41;5088951;28;20438;-56
2021/06/09 00:14:43;;;;;;;13.32;12.02;;;;;;;17.83;72.29;99346.09;5088980;28;20036;-59
2021/06/09 00:17:08;;;;;;;20.75;15.07;;;;;;;17.88;72.03;99338.25;5088742;28;20020;-58
2021/06/09 00:19:34;;;;;;;15.85;13.95;;;;;;;17.85;71.94;99344.03;5089699;28;20036;-58
2021/06/09 00:21:59;;;;;;;15.52;13.95;;;;;;;17.87;71.72;99337.41;5091934;28;20517;-58
2021/06/09 00:24:25;;;;;;;19.42;13.77;;;;;;;17.71;72.36;99342.97;5091210;28;20134;-59
2021/06/09 00:26:51;;;;;;;13.27;11.98;;;;;;;17.53;73.07;99354.94;5090479;28;20039;-59
2021/06/09 00:29:19;;;;;;;12.80;11.60;;;;;;;17.51;73.06;99357.00;5090676;28;20040;-59
2021/06/09 00:31:45;;;;;;;13.23;11.82;;;;;;;17.43;73.37;99360.59;5091827;28;20471;-58
2021/06/09 00:34:10;;;;;;;15.70;12.55;;;;;;;17.43;73.12;99354.34;5090722;28;20118;-60
2021/06/09 00:36:36;;;;;;;16.80;14.05;;;;;;;17.55;72.69;99371.84;5090194;28;20023;-59
2021/06/09 00:39:04;;;;;;;12.50;11.05;;;;;;;17.59;72.32;99348.81;5090777;28;20051;-57
2021/06/09 00:41:29;;;;;;;13.68;12.05;;;;;;;17.70;71.99;99354.81;5090708;28;20027;-54
2021/06/09 00:43:56;;;;;;;21.45;15.73;;;;;;;17.70;71.78;99360.25;5110202;28;20027;-58
2021/06/09 00:46:21;;;;;;;12.35;10.38;;;;;;;17.53;72.49;99348.72;5110261;28;20043;-60
2021/06/09 00:48:47;;;;;;;13.88;12.43;;;;;;;17.59;71.88;99346.09;5110506;28;20471;-59
2021/06/09 00:51:18;;;;;;;12.50;11.30;;;;;;;17.70;71.89;99366.47;5110867;28;20483;-59
2021/06/09 00:53:50;;;;;;;11.45;9.32;;;;;;;17.73;71.75;99357.16;5109071;28;20040;-58
2021/06/09 00:56:16;;;;;;;13.90;11.93;;;;;;;17.69;71.65;99362.09;5110651;28;20039;-60
2021/06/09 00:58:44;;;;;;;10.95;9.98;;;;;;;17.81;71.22;99356.25;5110998;28;20035;-59
2021/06/09 01:01:12;;;;;;;12.55;10.38;;;;;;;17.77;71.21;99355.78;5110876;28;20063;-59
2021/06/09 01:03:38;;;;;;;14.02;11.90;;;;;;;17.68;71.06;99335.22;5107706;28;20032;-60
2021/06/09 01:06:04;;;;;;;14.05;12.63;;;;;;;17.86;70.76;99364.66;5108216;28;20107;-58
2021/06/09 01:08:36;;;;;;;11.43;10.25;;;;;;;17.79;71.16;99356.44;5110500;28;20063;-58
2021/06/09 01:11:03;;;;;;;14.40;11.98;;;;;;;17.88;70.22;99351.78;5110579;28;20491;-56
2021/06/09 01:13:29;;;;;;;16.73;14.07;;;;;;;17.97;70.13;99363.38;5108904;28;20570;-57
2021/06/09 01:15:56;;;;;;;12.73;9.98;;;;;;;17.88;70.22;99362.63;5110250;28;20035;-59
2021/06/09 01:18:22;;;;;;;10.68;9.75;;;;;;;17.74;70.79;99358.84;5110267;28;20553;-58
2021/06/09 01:20:48;;;;;;;12.80;11.35;;;;;;;17.71;71.43;99356.50;5110566;28;20115;-59
2021/06/09 01:23:14;;;;;;;14.05;12.55;;;;;;;17.75;70.87;99374.06;5107683;28;20399;-58
2021/06/09 01:25:41;;;;;;;11.50;10.40;;;;;;;17.33;71.10;99316.72;5108347;28;20036;-59
2021/06/09 01:28:07;;;;;;;13.77;12.00;;;;;;;17.76;70.85;99356.78;5109551;28;20039;-58
2021/06/09 01:30:34;;;;;;;15.20;12.32;;;;;;;17.81;70.76;99369.78;5106791;28;20027;-58
2021/06/09 01:33:00;;;;;;;14.00;12.60;;;;;;;17.87;70.46;99352.81;5107823;28;20035;-58
2021/06/09 01:35:26;;;;;;;14.93;13.30;;;;;;;17.57;70.33;99312.13;5092822;28;20543;-59
2021/06/09 01:37:52;;;;;;;17.35;14.15;;;;;;;17.77;70.79;99356.63;5089691;28;21016;-60
2021/06/09 01:40:20;;;;;;;17.77;15.75;;;;;;;17.75;70.88;99364.09;5089736;28;20483;-59
2021/06/09 01:42:47;;;;;;;15.43;13.38;;;;;;;17.58;71.03;99343.59;5098959;28;20104;-59
2021/06/09 01:45:16;;;;;;;15.70;13.95;;;;;;;17.58;71.27;99357.94;5102556;28;20108;-59
2021/06/09 01:47:42;;;;;;;14.18;12.73;;;;;;;17.74;71.19;99367.81;5089183;28;20032;-58
2021/06/09 01:50:10;;;;;;;17.23;15.43;;;;;;;17.85;70.84;99379.22;5089300;28;20032;-59
2021/06/09 01:52:36;;;;;;;18.33;15.32;;;;;;;18.01;69.75;99375.53;5089737;28;20059;-59
2021/06/09 01:55:05;;;;;;;15.85;14.30;;;;;;;17.38;70.63;99306.19;5091591;28;20482;-59
2021/06/09 01:57:31;;;;;;;18.05;15.82;;;;;;;17.77;70.76;99375.59;5093247;28;20028;-59
2021/06/09 01:59:57;;;;;;;19.73;16.27;;;;;;;17.71;71.12;99381.69;5093086;28;20054;-60
2021/06/09 02:02:22;;;;;;;24.73;18.55;;;;;;;17.34;70.72;99311.09;5093160;28;20042;-59
2021/06/09 02:04:48;;;;;;;21.33;16.23;;;;;;;17.60;71.34;99364.03;5092917;28;20086;-58
2021/06/09 02:07:15;;;;;;;22.95;18.13;;;;;;;17.74;71.18;99384.06;5094041;28;20425;-58
2021/06/09 02:09:41;;;;;;;20.80;16.92;;;;;;;17.59;70.50;99327.16;5093055;28;20052;-59
2021/06/09 02:12:07;;;;;;;22.98;18.50;;;;;;;17.74;71.12;99383.22;5092664;28;20089;-57
2021/06/09 02:14:35;;;;;;;24.83;17.95;;;;;;;17.75;70.77;99360.53;5093078;28;20059;-58
2021/06/09 02:17:02;;;;;;;24.73;19.67;;;;;;;17.72;71.08;99374.44;5094568;28;20093;-59
2021/06/09 02:19:28;;;;;;;23.50;18.23;;;;;;;17.63;71.47;99363.69;5092803;28;20050;-59
2021/06/09 02:21:53;;;;;;;19.73;16.10;;;;;;;17.70;71.34;99373.78;5092330;28;20903;-59
2021/06/09 02:24:20;;;;;;;18.95;15.65;;;;;;;17.74;71.47;99366.97;5092718;28;20100;-58
2021/06/09 02:26:46;;;;;;;25.45;17.65;;;;;;;17.85;70.90;99363.84;5093914;28;20403;-58
2021/06/09 02:29:13;;;;;;;18.63;15.63;;;;;;;17.96;70.19;99365.25;5092523;28;20036;-59
2021/06/09 02:31:44;;;;;;;22.48;17.15;;;;;;;17.87;70.33;99367.22;5092233;28;20028;-59
2021/06/09 02:34:17;;;;;;;15.77;14.15;;;;;;;17.85;70.92;99366.56;5092516;28;20164;-59
2021/06/09 02:36:43;;;;;;;23.48;18.48;;;;;;;17.75;71.17;99358.69;5092914;28;20092;-58
2021/06/09 02:39:09;;;;;;;17.08;14.32;;;;;;;17.87;71.02;99366.34;5094215;28;20130;-58
2021/06/09 02:41:35;;;;;;;19.00;15.45;;;;;;;17.96;70.38;99364.41;5092238;28;20123;-58
2021/06/09 02:44:01;;;;;;;16.20;14.43;;;;;;;17.99;70.40;99366.75;5092657;28;20040;-59
2021/06/09 02:46:34;;;;;;;22.65;15.95;;;;;;;18.01;70.66;99372.81;5092590;28;20032;-58
2021/06/09 02:49:03;;;;;;;15.43;12.70;;;;;;;18.00;70.73;99368.44;5093509;28;20036;-59
2021/06/09 02:51:35;;;;;;;14.38;12.88;;;;;;;18.09;70.58;99375.50;5092085;28;20052;-59
2021/06/09 02:54:07;;;;;;;16.52;14.77;;;;;;;18.20;69.85;99376.91;5092370;28;20052;-60
2021/06/09 02:56:58;;;;;;;16.05;13.30;;;;;;;18.13;70.31;99382.22;5092834;28;20035;-59
2021/06/09 02:59:45;;;;;;;17.02;14.63;;;;;;;17.84;70.08;99321.50;5091699;28;20444;-58
2021/06/09 03:02:16;;;;;;;19.33;14.75;;;;;;;18.20;69.57;99380.47;5093841;28;20034;-59
2021/06/09 03:04:49;;;;;;;17.10;15.07;;;;;;;18.27;69.13;99377.00;5112742;28;20042;-58
2021/06/09 03:07:32;;;;;;;18.33;14.82;;;;;;;18.13;70.14;99387.66;5112646;28;20387;-58
2021/06/09 03:10:13;;;;;;;17.25;15.25;;;;;;;18.07;70.23;99377.53;5112017;28;20047;-60
2021/06/09 03:12:45;;;;;;;16.15;14.45;;;;;;;17.99;70.58;99386.56;5110508;28;20024;-56
2021/06/09 03:15:32;;;;;;;18.65;15.48;;;;;;;18.00;70.24;99401.78;5112788;28;20039;-58
2021/06/09 03:18:04;;;;;;;18.65;13.82;;;;;;;18.08;69.84;99396.31;5112271;28;20035;-59
2021/06/09 03:20:51;;;;;;;17.83;14.48;;;;;;;18.11;70.01;99389.72;5111785;28;20035;-57
2021/06/09 03:23:33;;;;;;;23.33;17.05;;;;;;;18.01;70.05;99400.81;5107172;28;20036;-58
2021/06/09 03:26:04;;;;;;;15.73;13.13;;;;;;;17.97;70.40;99394.03;5091367;28;20068;-60
2021/06/09 03:28:35;;;;;;;21.58;14.80;;;;;;;18.03;69.99;99389.75;5091221;28;20072;-59
2021/06/09 03:31:04;;;;;;;19.85;16.75;;;;;;;18.16;69.35;99400.81;5091118;28;20028;-58
2021/06/09 03:33:39;;;;;;;22.58;18.08;;;;;;;18.10;69.28;99388.03;5093025;28;20039;-59
2021/06/09 03:36:19;;;;;;;18.13;16.15;;;;;;;18.03;69.50;99385.19;5111897;28;20551;-59
2021/06/09 03:38:48;;;;;;;18.27;16.27;;;;;;;18.14;69.34;99393.91;5111559;28;20108;-58
2021/06/09 03:41:16;;;;;;;18.10;16.20;;;;;;;17.97;69.96;99404.00;5111809;28;20490;-58
2021/06/09 03:43:47;;;;;;;18.98;16.95;;;;;;;17.90;70.26;99415.59;5109723;28;20492;-59
2021/06/09 03:46:14;;;;;;;20.58;18.38;;;;;;;17.68;69.69;99357.69;5110055;28;20126;-59
2021/06/09 03:48:41;;;;;;;23.58;18.98;;;;;;;17.73;69.84;99370.69;5111823;27;20049;-59
2021/06/09 03:51:08;;;;;;;27.10;19.30;;;;;;;17.94;69.72;99395.22;5111675;28;20066;-60
2021/06/09 03:53:35;;;;;;;22.00;16.92;;;;;;;17.91;69.93;99411.00;5111575;28;20111;-59
2021/06/09 03:56:04;;;;;;;18.10;15.65;;;;;;;17.98;69.64;99394.88;5095123;28;20079;-59
2021/06/09 03:58:30;;;;;;;21.00;16.58;;;;;;;17.90;70.01;99398.47;5091145;28;20068;-59
2021/06/09 04:00:57;;;;;;;19.52;17.30;;;;;;;17.86;70.63;99399.88;5090729;28;20101;-59
2021/06/09 04:03:24;;;;;;;18.80;16.67;;;;;;;17.94;70.40;99392.53;5090974;28;20093;-59
2021/06/09 04:05:52;;;;;;;24.58;18.15;;;;;;;18.14;69.47;99383.91;5101549;28;20039;-59
2021/06/09 04:08:19;;;;;;;20.60;15.88;;;;;;;18.27;69.05;99404.09;5110776;28;20399;-59
2021/06/09 04:10:47;;;;;;;20.58;16.77;;;;;;;18.30;68.46;99393.75;5111065;28;20090;-58
2021/06/09 04:13:14;;;;;;;19.10;16.20;;;;;;;18.20;68.85;99395.88;5111484;28;20051;-55
2021/06/09 04:15:43;;;;;;;24.70;19.52;;;;;;;18.19;69.09;99389.63;5108175;28;20044;-59
2021/06/09 04:18:10;;;;;;;22.40;16.38;;;;;;;18.25;69.01;99396.19;5110223;28;20051;-59
2021/06/09 04:20:36;;;;;;;21.50;16.45;;;;;;;18.38;68.64;99395.53;5111385;28;20039;-59
2021/06/09 04:23:03;;;;;;;16.92;14.68;;;;;;;18.45;68.28;99396.47;5111060;28;20031;-59
2021/06/09 04:25:29;;;;;;;19.55;14.90;;;;;;;18.22;67.68;99324.22;5110665;28;20055;-56
2021/06/09 04:27:56;;;;;;;19.05;15.10;;;;;;;18.59;67.33;99381.22;5108521;28;20164;-59
2021/06/09 04:30:22;;;;;;;15.32;13.55;;;;;;;18.77;67.25;99391.69;5110972;28;20507;-59
2021/06/09 04:32:56;;;;;;;15.25;13.07;;;;;;;19.06;66.57;99381.03;5111256;28;20124;-59
2021/06/09 04:35:27;;;;;;;20.48;15.07;;;;;;;19.34;65.24;99383.84;5110362;28;20084;-59
2021/06/09 04:37:53;;;;;;;15.18;13.43;;;;;;;19.56;64.51;99397.44;5108344;28;20044;-58
2021/06/09 04:40:27;;;;;;;17.20;14.23;;;;;;;19.79;63.21;99386.38;5110890;28;20038;-58
2021/06/09 04:42:55;;;;;;;15.20;13.18;;;;;;;19.55;62.28;99341.47;5110689;28;20039;-59
2021/06/09 04:45:23;;;;;;;15.43;13.32;;;;;;;19.85;62.24;99401.06;5110380;28;20028;-58
2021/06/09 04:47:49;;;;;;;15.32;13.07;;;;;;;19.76;62.82;99397.63;5108184;28;20462;-59
2021/06/09 04:50:20;;;;;;;14.00;12.57;;;;;;;19.52;63.57;99398.84;5110125;28;20035;-58
2021/06/09 04:52:47;;;;;;;12.50;11.30;;;;;;;19.39;64.22;99402.25;5110763;28;20036;-59
2021/06/09 04:55:14;;;;;;;17.13;13.52;;;;;;;19.38;63.73;99397.03;5110499;28;20115;-51
2021/06/09 04:57:39;;;;;;;18.48;13.77;;;;;;;18.94;64.54;99353.50;5108966;28;20301;-58
2021/06/09 05:00:08;;;;;;;18.02;14.05;;;;;;;19.22;63.86;99390.81;5110414;28;20552;-59
2021/06/09 05:02:34;;;;;;;12.05;10.75;;;;;;;19.16;64.22;99400.53;5110600;28;20040;-59
2021/06/09 05:05:00;;;;;;;15.88;11.10;;;;;;;19.17;64.84;99394.13;5110111;28;20027;-57
2021/06/09 05:07:26;;;;;;;16.55;12.82;;;;;;;19.41;63.56;99396.66;5109736;28;20122;-56
2021/06/09 05:09:53;;;;;;;21.67;15.90;;;;;;;19.32;63.39;99396.78;5108433;28;20169;-58
2021/06/09 05:12:21;;;;;;;15.23;11.93;;;;;;;19.16;64.92;99405.16;5108967;28;20043;-59
2021/06/09 05:14:51;;;;;;;14.68;13.00;;;;;;;19.15;64.12;99390.72;5110316;28;20035;-59
2021/06/09 05:17:20;;;;;;;19.92;15.02;;;;;;;19.11;64.81;99405.72;5109994;28;20035;-59
2021/06/09 05:19:48;;;;;;;13.00;11.70;;;;;;;19.13;64.73;99397.38;5107864;28;20031;-60
2021/06/09 05:22:45;;;;;;;13.90;12.52;;;;;;;19.33;64.28;99408.47;5109889;28;20402;-56
2021/06/09 05:25:12;;;;;;;20.45;15.48;;;;;;;19.22;64.29;99402.53;5093914;28;20046;-59
2021/06/09 05:27:40;;;;;;;21.40;13.95;;;;;;;19.19;64.27;99404.75;5109956;28;20054;-58
2021/06/09 05:30:07;;;;;;;16.92;12.07;;;;;;;19.07;64.55;99385.41;5109535;28;20343;-59
2021/06/09 05:32:35;;;;;;;18.33;15.57;;;;;;;19.35;63.77;99401.81;5114012;28;20044;-58
2021/06/09 05:35:02;;;;;;;25.35;17.35;;;;;;;19.38;63.68;99406.00;5113356;28;20517;-60
2021/06/09 05:37:28;;;;;;;21.92;15.13;;;;;;;19.24;63.19;99368.91;5113979;28;20474;-59
2021/06/09 05:39:58;;;;;;;14.65;12.60;;;;;;;19.41;63.75;99400.22;5111630;28;20024;-58
2021/06/09 05:42:24;;;;;;;16.23;12.30;;;;;;;19.52;63.75;99407.00;5113569;28;20056;-58
2021/06/09 05:44:50;;;;;;;14.32;12.68;;;;;;;19.54;63.97;99399.53;5114263;28;20874;-57
2021/06/09 05:47:16;;;;;;;16.15;13.57;;;;;;;19.59;63.06;99379.91;5113711;28;20410;-55
2021/06/09 05:49:41;;;;;;;28.38;19.77;;;;;;;19.79;62.61;99407.28;5113906;28;20036;-59
2021/06/09 05:52:07;;;;;;;14.02;12.63;;;;;;;19.70;63.05;99397.56;5112079;28;20114;-59
2021/06/09 05:54:38;;;;;;;14.73;13.23;;;;;;;19.88;62.25;99410.69;5113842;28;20036;-64
2021/06/09 05:57:06;;;;;;;15.68;12.68;;;;;;;19.87;62.31;99409.00;5112222;28;20122;-61
2021/06/09 05:59:33;;;;;;;13.20;11.65;;;;;;;19.77;62.18;99409.31;5113927;28;20043;-62
2021/06/09 06:01:59;;;;;;;23.85;13.38;;;;;;;19.91;61.45;99403.03;5111979;28;20044;-63
2021/06/09 06:04:26;;;;;;;12.52;11.23;;;;;;;19.85;61.83;99411.06;5113713;28;20118;-59
2021/06/09 06:06:52;;;;;;;16.45;12.55;;;;;;;19.93;61.13;99411.00;5113473;27;20028;-62
2021/06/09 06:09:18;;;;;;;13.20;10.40;;;;;;;19.87;61.67;99409.84;5101932;28;20143;-63
2021/06/09 06:11:45;;;;;;;13.82;10.25;;;;;;;19.92;61.76;99420.19;5093191;28;20123;-64
2021/06/09 06:14:11;;;;;;;15.65;10.68;;;;;;;20.00;61.59;99416.47;5092670;28;20055;-59
2021/06/09 06:16:39;;;;;;;20.10;14.88;;;;;;;19.97;60.71;99386.97;5092661;28;20036;-59
2021/06/09 06:19:05;;;;;;;21.67;15.70;;;;;;;19.91;60.83;99394.88;5093767;28;20038;-59
2021/06/09 06:21:31;;;;;;;20.55;12.43;;;;;;;20.02;60.66;99417.97;5092681;28;20044;-59
2021/06/09 06:23:57;;;;;;;15.55;11.02;;;;;;;19.87;61.24;99425.31;5092781;28;20093;-61
2021/06/09 06:26:24;;;;;;;23.52;17.10;;;;;;;19.72;61.55;99428.09;5091521;28;20035;-59
2021/06/09 06:28:52;;;;;;;16.33;11.48;;;;;;;19.32;61.89;99368.78;5092438;28;20035;-58
2021/06/09 06:31:26;;;;;;;13.93;9.88;;;;;;;19.73;62.14;99418.91;5093783;28;20043;-59
2021/06/09 06:33:54;;;;;;;11.88;9.73;;;;;;;19.70;61.80;99430.16;5092075;28;20085;-58
2021/06/09 06:36:22;;;;;;;18.45;12.70;;;;;;;19.02;61.40;99315.44;5092418;28;20024;-58
2021/06/09 06:38:49;;;;;;;14.27;10.85;;;;;;;19.89;61.07;99426.81;5092735;28;20105;-58
2021/06/09 06:41:15;;;;;;;12.63;10.95;;;;;;;19.83;60.96;99422.16;5092581;28;20040;-59
2021/06/09 06:43:41;;;;;;;12.30;10.48;;;;;;;19.85;61.25;99433.66;5092155;28;20127;-58
2021/06/09 06:46:12;;;;;;;17.05;10.80;;;;;;;19.87;61.33;99423.44;5092441;28;20035;-57
2021/06/09 06:48:38;;;;;;;19.38;13.93;;;;;;;19.90;61.33;99438.53;5091971;28;20146;-60
2021/06/09 06:51:05;;;;;;;18.17;12.95;;;;;;;19.96;60.59;99437.75;5091136;28;20032;-58
2021/06/09 06:53:30;;;;;;;12.23;10.45;;;;;;;20.00;61.24;99432.75;5092149;28;20072;-59
2021/06/09 06:56:00;;;;;;;15.68;10.85;;;;;;;20.06;61.15;99443.69;5091538;28;20413;-62
2021/06/09 06:58:30;;;;;;;21.95;13.52;;;;;;;20.09;60.81;99442.47;5091954;28;20399;-61
2021/06/09 07:00:56;;;;;;;16.90;11.20;;;;;;;20.05;60.80;99438.47;5091521;28;20065;-62
2021/06/09 07:03:22;;;;;;;13.38;10.63;;;;;;;20.04;60.91;99448.50;5091814;28;20514;-59
2021/06/09 07:05:48;;;;;;;15.85;11.93;;;;;;;19.86;60.72;99421.75;5092453;28;20410;-63
2021/06/09 07:08:14;;;;;;;18.73;11.00;;;;;;;19.88;61.36;99456.88;5091789;28;20060;-62
2021/06/09 07:10:41;;;;;;;16.33;11.95;;;;;;;19.97;60.88;99452.19;5091789;28;20070;-63
2021/06/09 07:13:07;;;;;;;15.50;12.40;;;;;;;19.91;61.19;99460.06;5092655;28;20040;-60
2021/06/09 07:15:33;;;;;;;18.88;12.75;;;;;;;19.89;61.66;99455.81;5091330;28;20122;-62
2021/06/09 07:18:00;;;;;;;16.45;11.45;;;;;;;19.67;62.13;99458.56;5091376;28;20039;-62
2021/06/09 07:20:28;;;;;;;22.25;15.23;;;;;;;19.68;62.40;99475.69;5091802;28;20119;-61
2021/06/09 07:22:56;;;;;;;16.73;11.25;;;;;;;19.71;62.38;99472.56;5092396;28;20411;-61
2021/06/09 07:25:23;;;;;;;15.65;10.80;;;;;;;19.69;62.90;99463.78;5099905;28;20032;-62
2021/06/09 07:27:54;;;;;;;19.60;14.25;;;;;;;19.99;61.70;99458.25;5111701;28;20143;-60
2021/06/09 07:30:26;;;;;;;12.10;10.80;;;;;;;19.78;61.72;99438.19;5112096;28;20114;-62
2021/06/09 07:32:51;;;;;;;14.70;10.43;;;;;;;19.93;62.17;99463.44;5107735;28;20031;-51
2021/06/09 07:35:17;;;;;;;15.18;10.85;;;;;;;19.64;61.77;99394.59;5091601;28;20380;-62
2021/06/09 07:37:46;;;;;;;16.10;10.88;;;;;;;20.22;61.46;99469.75;5089422;28;20043;-62
2021/06/09 07:40:25;;;;;;;14.40;9.45;;;;;;;20.36;61.09;99450.84;5091638;28;20493;-61
2021/06/09 07:42:54;;;;;;;14.10;9.40;;;;;;;20.47;61.02;99463.88;5091231;28;20039;-61
2021/06/09 07:45:22;;;;;;;12.05;9.02;;;;;;;20.44;60.70;99464.28;5111260;28;20199;-61
2021/06/09 07:47:49;;;;;;;9.43;8.10;;;;;;;20.47;60.92;99463.06;5111721;28;20031;-60
2021/06/09 07:50:23;;;;;;;15.15;8.90;;;;;;;20.57;60.71;99468.97;5111476;28;20199;-62
2021/06/09 07:52:49;;;;;;;32.90;18.58;;;;;;;20.41;59.81;99448.38;5110562;28;20039;-61
2021/06/09 07:55:16;;;;;;;14.68;10.85;;;;;;;20.59;59.18;99466.06;5109022;28;20104;-59
2021/06/09 07:57:43;;;;;;;25.48;16.48;;;;;;;20.17;60.23;99464.06;5104563;28;20031;-57
2021/06/09 08:00:12;;;;;;;16.77;12.32;;;;;;;19.97;61.23;99460.31;5109396;28;20031;-62
2021/06/09 08:02:42;;;;;;;12.75;9.05;;;;;;;20.20;61.31;99490.84;5108778;28;20039;-62
2021/06/09 08:05:09;;;;;;;12.10;8.75;;;;;;;20.42;60.78;99493.56;5100602;28;20044;-66
2021/06/09 08:07:39;;;;;;;15.98;9.10;;;;;;;20.36;60.14;99426.38;5103180;28;20127;-61
2021/06/09 08:10:07;;;;;;;12.80;9.32;;;;;;;21.05;59.08;99481.03;5109865;28;20043;-62
2021/06/09 08:12:34;;;;;;;13.13;9.35;;;;;;;21.33;57.79;99478.25;5110331;28;20043;-59
2021/06/09 08:15:01;;;;;;;16.33;8.95;;;;;;;21.47;57.30;99483.75;5106375;28;20038;-60
2021/06/09 08:17:27;;;;;;;20.25;9.55;;;;;;;21.53;57.19;99488.38;5102930;28;20035;-58
2021/06/09 08:19:52;;;;;;;15.48;9.07;;;;;;;21.77;56.63;99483.44;5110349;28;20133;-60
2021/06/09 08:22:18;;;;;;;12.27;9.25;;;;;;;22.10;55.88;99463.56;5110234;28;20028;-59
2021/06/09 08:24:43;;;;;;;15.40;9.02;;;;;;;22.58;54.37;99473.47;5109774;28;20130;-59
2021/06/09 08:27:09;;;;;;;15.40;9.23;;;;;;;22.98;53.29;99472.53;5102756;28;20118;-60
2021/06/09 08:29:37;;;;;;;11.35;8.52;;;;;;;23.43;52.29;99466.31;5110106;28;20043;-59
2021/06/09 08:32:04;;;;;;;9.60;8.48;;;;;;;23.62;50.49;99398.94;5110123;28;20061;-60
2021/06/09 08:34:29;;;;;;;11.27;8.40;;;;;;;24.66;48.60;99466.06;5110113;28;20027;-58
2021/06/09 08:36:56;;;;;;;10.55;9.10;;;;;;;25.32;47.74;99468.34;5108341;28;20507;-52
2021/06/09 08:39:22;;;;;;;9.68;8.73;;;;;;;25.48;46.47;99423.06;5103591;28;20028;-60
2021/06/09 08:41:50;;;;;;;11.20;9.10;;;;;;;25.63;45.62;99457.41;5108511;28;20036;-58
2021/06/09 08:44:16;;;;;;;16.92;9.07;;;;;;;25.40;46.37;99472.66;5109568;28;20024;-54
2021/06/09 08:46:42;;;;;;;14.07;8.98;;;;;;;25.01;46.57;99472.91;5105388;28;20484;-60
2021/06/09 08:49:08;;;;;;;12.05;8.20;;;;;;;24.92;46.96;99466.88;5099058;28;20050;-59
2021/06/09 08:51:36;;;;;;;15.27;9.57;;;;;;;24.66;47.09;99449.66;5105157;28;20135;-59
2021/06/09 08:54:07;;;;;;;10.65;8.32;;;;;;;24.77;47.08;99469.19;5108744;28;20139;-57
2021/06/09 08:56:36;;;;;;;10.55;8.55;;;;;;;24.67;47.17;99472.41;5108706;28;20042;-58
2021/06/09 08:59:01;;;;;;;12.73;8.82;;;;;;;24.58;47.56;99473.72;5099429;28;20088;-57
2021/06/09 09:01:29;;;;;;;13.35;9.23;;;;;;;24.54;47.61;99475.25;5109251;28;20441;-58
2021/06/09 09:03:55;;;;;;;13.63;8.65;;;;;;;24.47;47.37;99473.41;5109063;28;20114;-58
2021/06/09 09:06:21;;;;;;;9.48;8.45;;;;;;;24.31;47.79;99473.97;5110032;28;20139;-60
2021/06/09 09:08:46;;;;;;;13.35;9.10;;;;;;;24.23;47.67;99469.59;5104904;28;20074;-60
2021/06/09 09:11:12;;;;;;;9.98;8.18;;;;;;;24.21;48.27;99467.13;5109035;28;20123;-60
2021/06/09 09:13:39;;;;;;;14.68;8.02;;;;;;;24.28;48.17;99469.81;5109537;28;20039;-58
2021/06/09 09:16:05;;;;;;;11.07;8.38;;;;;;;24.30;47.99;99466.81;5108767;28;20072;-58
2021/06/09 09:18:59;;;;;;;11.13;8.65;;;;;;;24.28;47.43;99468.94;5104388;28;20036;-59
2021/06/09 09:21:39;;;;;;;11.77;7.95;;;;;;;24.08;48.20;99461.72;5102711;28;20035;-57
2021/06/09 09:24:09;;;;;;;11.30;8.50;;;;;;;23.93;48.49;99448.34;5109474;28;20045;-59
2021/06/09 09:26:36;;;;;;;11.25;8.48;;;;;;;24.06;48.05;99452.91;5109243;28;20119;-59
2021/06/09 09:29:18;;;;;;;9.02;8.13;;;;;;;24.25;47.69;99453.00;5102375;28;20495;-57
2021/06/09 09:32:03;;;;;;;16.25;8.27;;;;;;;24.49;46.98;99454.88;5104607;28;20057;-62
2021/06/09 09:34:35;;;;;;;10.68;7.15;;;;;;;24.58;46.43;99462.78;5092971;28;20032;-58
2021/06/09 09:37:07;;;;;;;8.77;6.57;;;;;;;24.75;45.86;99452.97;5108425;28;20112;-53
2021/06/09 09:39:34;;;;;;;10.27;6.60;;;;;;;24.80;45.01;99457.78;5109019;28;20039;-60
2021/06/09 09:42:19;;;;;;;7.60;6.38;;;;;;;24.69;45.15;99453.84;5109183;28;20031;-62
2021/06/09 09:44:45;;;;;;;8.95;6.70;;;;;;;24.80;45.18;99446.81;5108520;28;20354;-60
2021/06/09 09:47:15;;;;;;;11.07;6.65;;;;;;;25.16;44.31;99441.56;5108039;28;20510;-59
2021/06/09 09:49:41;;;;;;;7.80;6.10;;;;;;;25.59;43.79;99431.53;5109044;28;20043;-60
2021/06/09 09:52:07;;;;;;;11.27;6.32;;;;;;;25.96;42.97;99427.81;5106283;28;20535;-58
2021/06/09 09:54:38;;;;;;;7.22;6.40;;;;;;;26.11;42.40;99436.44;5108661;28;20054;-54
2021/06/09 09:57:09;;;;;;;8.65;6.30;;;;;;;25.92;42.60;99431.03;5108502;28;20031;-60
2021/06/09 09:59:35;;;;;;;8.23;5.80;;;;;;;25.69;43.34;99425.50;5108797;28;20096;-61
2021/06/09 10:02:03;;;;;;;9.30;6.13;;;;;;;25.59;42.89;99407.72;5106558;28;20125;-61
2021/06/09 10:04:33;;;;;;;6.38;5.82;;;;;;;25.48;42.15;99386.56;5108484;28;20031;-62
2021/06/09 10:06:59;;;;;;;10.25;5.95;;;;;;;25.81;42.44;99409.94;5108231;28;20057;-60
2021/06/09 10:09:44;;;;;;;9.80;5.90;;;;;;;26.16;42.05;99425.63;5090611;28;20100;-57
2021/06/09 10:12:16;;;;;;;7.25;5.85;;;;;;;26.35;40.72;99447.47;5103380;28;20036;-61
2021/06/09 10:14:46;;;;;;;7.18;5.50;;;;;;;26.34;40.66;99429.34;5107067;28;20538;-60
2021/06/09 10:17:15;;;;;;;6.30;5.65;;;;;;;26.08;40.78;99431.44;5111005;28;20126;-58
2021/06/09 10:19:45;;;;;;;7.65;5.90;;;;;;;25.78;42.08;99432.31;5112421;28;20054;-60
2021/06/09 10:22:16;;;;;;;7.78;5.43;;;;;;;25.54;42.86;99385.63;5111194;28;20035;-59
2021/06/09 10:24:54;;;;;;;6.18;5.53;;;;;;;25.99;42.33;99416.38;5111979;28;20066;-60
2021/06/09 10:27:48;;;;;;;5.93;5.38;;;;;;;26.43;41.33;99416.94;5112661;28;20032;-56
2021/06/09 10:30:16;;;;;;;5.13;4.72;;;;;;;26.40;41.00;99420.16;5111752;28;20122;-60
2021/06/09 10:32:47;;;;;;;8.05;4.90;;;;;;;26.60;40.65;99421.69;5107361;28;20459;-59
2021/06/09 10:35:13;;;;;;;6.90;5.70;;;;;;;26.87;40.03;99402.00;5102928;28;20036;-58
2021/06/09 10:37:39;;;;;;;8.57;5.40;;;;;;;26.94;40.12;99417.28;5111911;28;20387;-58
2021/06/09 10:40:06;;;;;;;9.38;5.32;;;;;;;26.75;39.89;99401.97;5111763;28;20122;-60
2021/06/09 10:42:33;;;;;;;9.57;5.15;;;;;;;26.63;40.91;99411.06;5111857;28;20079;-61
2021/06/09 10:44:58;;;;;;;5.70;5.15;;;;;;;26.70;40.23;99408.19;5101055;28;20127;-60
2021/06/09 10:47:28;;;;;;;6.95;5.13;;;;;;;26.63;40.69;99410.25;5112214;28;20122;-63
2021/06/09 10:50:05;;;;;;;8.10;5.65;;;;;;;26.36;40.77;99410.72;5111611;28;20058;-62
2021/06/09 10:52:31;;;;;;;7.05;5.18;;;;;;;26.21;41.43;99409.28;5111705;28;20120;-64
2021/06/09 10:54:57;;;;;;;8.13;5.80;;;;;;;26.14;41.40;99396.72;5105276;28;20073;-57
2021/06/09 10:57:23;;;;;;;8.80;5.70;;;;;;;26.20;41.44;99413.09;5112162;28;20114;-62
2021/06/09 10:59:48;;;;;;;8.80;5.80;;;;;;;25.72;40.98;99367.44;5111643;28;20035;-59
2021/06/09 11:02:20;;;;;;;6.70;5.32;;;;;;;25.25;43.09;99393.59;5111433;28;20028;-60
2021/06/09 11:04:50;;;;;;;8.10;4.90;;;;;;;24.97;43.72;99413.38;5109691;28;20463;-55
2021/06/09 11:07:39;;;;;;;8.73;5.65;;;;;;;25.01;44.10;99403.63;5110547;28;20039;-57
2021/06/09 11:10:09;;;;;;;8.65;5.20;;;;;;;25.14;43.47;99394.41;5110832;28;20047;-59
2021/06/09 11:12:43;;;;;;;10.60;5.20;;;;;;;25.13;44.27;99404.50;5111069;28;20028;-57
2021/06/09 11:15:14;;;;;;;12.43;5.85;;;;;;;25.12;44.61;99393.78;5102357;28;20130;-60
2021/06/09 11:17:52;;;;;;;11.23;5.60;;;;;;;25.16;44.60;99400.47;5105802;28;20046;-58
2021/06/09 11:20:23;;;;;;;7.60;4.95;;;;;;;25.23;43.13;99412.19;5094529;28;20509;-59
2021/06/09 11:22:49;;;;;;;6.15;4.90;;;;;;;25.07;42.88;99400.78;5111051;28;20512;-60
2021/06/09 11:25:15;;;;;;;6.13;5.18;;;;;;;24.92;43.33;99420.34;5105466;28;20126;-61
2021/06/09 11:27:52;;;;;;;7.00;5.03;;;;;;;24.74;44.00;99404.72;5105888;28;20076;-61